createdAt,value
2023-04-11T00:00:12.156Z,7.15
2023-04-11T00:01:14.610Z,7.17
2023-04-11T00:02:16.960Z,7.16
2023-04-11T00:03:20.305Z,7.14
2023-04-11T00:04:22.986Z,7.09
2023-04-11T00:05:26.439Z,7.08
2023-04-11T00:06:28.626Z,7.05
2023-04-11T00:07:30.894Z,7.04
2023-04-11T00:08:33.050Z,6.95
2023-04-11T00:09:35.752Z,6.97
2023-04-11T00:10:38.037Z,6.97
2023-04-11T00:11:40.189Z,6.97
2023-04-11T00:12:42.304Z,6.94
2023-04-11T00:13:45.410Z,6.96
2023-04-11T00:14:49.108Z,6.89
2023-04-11T00:15:55.166Z,6.81
2023-04-11T00:16:57.405Z,6.76
2023-04-11T00:17:59.643Z,6.75
2023-04-11T00:19:01.908Z,6.81
2023-04-11T00:20:07.781Z,6.81
2023-04-11T00:21:10.549Z,6.81
2023-04-11T00:22:13.888Z,6.84
2023-04-11T00:23:16.191Z,6.80
2023-04-11T00:24:18.440Z,6.80
2023-04-11T00:25:20.752Z,6.88
2023-04-11T00:26:22.975Z,6.90
2023-04-11T00:27:25.089Z,6.85
2023-04-11T00:28:27.455Z,6.86
2023-04-11T00:29:29.711Z,6.85
2023-04-11T00:30:32.013Z,6.82
2023-04-11T00:31:34.653Z,6.85
2023-04-11T00:32:36.990Z,6.82
2023-04-11T00:33:40.899Z,6.82
2023-04-11T00:34:43.211Z,6.77
2023-04-11T00:35:45.806Z,6.79
2023-04-11T00:36:48.697Z,6.82
2023-04-11T00:37:56.137Z,6.79
2023-04-11T00:38:58.611Z,6.77
2023-04-11T00:40:01.203Z,6.72
2023-04-11T00:41:03.388Z,6.73
2023-04-11T00:42:07.201Z,6.69
2023-04-11T00:43:09.589Z,6.69
2023-04-11T00:44:11.836Z,6.66
2023-04-11T00:45:14.096Z,6.66
2023-04-11T00:46:17.283Z,6.65
2023-04-11T00:47:19.776Z,6.66
2023-04-11T00:48:23.520Z,6.64
2023-04-11T00:49:26.162Z,6.63
2023-04-11T00:50:28.559Z,6.59
2023-04-11T00:51:30.884Z,6.57
2023-04-11T00:52:33.223Z,6.58
2023-04-11T00:53:37.063Z,6.56
2023-04-11T00:54:39.571Z,6.59
2023-04-11T00:55:41.822Z,6.59
2023-04-11T00:56:44.130Z,6.58
2023-04-11T00:57:46.462Z,6.59
2023-04-11T00:58:48.887Z,6.60
2023-04-11T00:59:51.627Z,6.60
2023-04-11T01:00:54.228Z,6.58
2023-04-11T01:01:57.305Z,6.49
2023-04-11T01:02:59.882Z,6.50
2023-04-11T01:04:02.581Z,6.45
2023-04-11T01:05:06.032Z,6.48
2023-04-11T01:06:09.646Z,6.45
2023-04-11T01:07:12.165Z,6.44
2023-04-11T01:08:14.827Z,6.45
2023-04-11T01:09:17.461Z,6.42
2023-04-11T01:10:19.658Z,6.42
2023-04-11T01:11:21.949Z,6.42
2023-04-11T01:12:24.240Z,6.42
2023-04-11T01:13:26.441Z,6.45
2023-04-11T01:14:29.003Z,6.49
2023-04-11T01:15:31.377Z,6.52
2023-04-11T01:16:33.677Z,6.52
2023-04-11T01:17:35.932Z,6.52
2023-04-11T01:18:38.145Z,6.49
2023-04-11T01:19:40.652Z,6.46
2023-04-11T01:20:42.920Z,6.43
2023-04-11T01:21:46.070Z,6.41
2023-04-11T01:22:49.506Z,6.40
2023-04-11T01:23:54.296Z,6.36
2023-04-11T01:24:56.444Z,6.38
2023-04-11T01:25:58.497Z,6.38
2023-04-11T01:27:01.843Z,6.38
2023-04-11T01:28:04.148Z,6.35
2023-04-11T01:29:06.473Z,6.33
2023-04-11T01:30:09.191Z,6.33
2023-04-11T01:31:12.110Z,6.31
2023-04-11T01:32:14.360Z,6.28
2023-04-11T01:33:16.552Z,6.28
2023-04-11T01:34:19.185Z,6.27
2023-04-11T01:35:21.363Z,6.28
2023-04-11T01:36:23.579Z,6.24
2023-04-11T01:37:25.819Z,6.22
2023-04-11T01:38:27.916Z,6.13
2023-04-11T01:39:30.292Z,6.03
2023-04-11T01:40:35.479Z,6.02
2023-04-11T01:41:38.129Z,6.03
2023-04-11T01:42:40.463Z,6.02
2023-04-11T01:43:43.476Z,6.05
2023-04-11T01:44:46.020Z,6.09
2023-04-11T01:45:48.196Z,6.07
2023-04-11T01:46:51.280Z,6.12
2023-04-11T01:47:54.701Z,6.12
2023-04-11T01:48:58.319Z,6.08
2023-04-11T01:50:01.198Z,6.11
2023-04-11T01:51:03.619Z,6.14
2023-04-11T01:52:05.908Z,6.15
2023-04-11T01:53:08.082Z,6.13
2023-04-11T01:54:10.383Z,6.10
2023-04-11T01:55:12.523Z,6.11
2023-04-11T01:56:14.757Z,6.08
2023-04-11T01:57:17.212Z,6.06
2023-04-11T01:58:19.346Z,6.05
2023-04-11T01:59:21.474Z,6.05
2023-04-11T02:00:24.175Z,6.02
2023-04-11T02:01:26.773Z,6.02
2023-04-11T02:02:29.246Z,6.02
2023-04-11T02:03:31.887Z,6.02
2023-04-11T02:04:34.125Z,6.01
2023-04-11T02:05:36.323Z,5.98
2023-04-11T02:06:38.777Z,5.99
2023-04-11T02:07:41.255Z,5.95
2023-04-11T02:08:43.966Z,5.90
2023-04-11T02:09:46.205Z,5.88
2023-04-11T02:10:48.276Z,5.86
2023-04-11T02:11:50.429Z,5.84
2023-04-11T02:12:52.609Z,5.79
2023-04-11T02:13:54.844Z,5.77
2023-04-11T02:14:57.040Z,5.81
2023-04-11T02:16:06.165Z,5.74
2023-04-11T02:17:10.044Z,5.78
2023-04-11T02:18:12.368Z,5.82
2023-04-11T02:19:14.511Z,5.85
2023-04-11T02:20:16.934Z,5.80
2023-04-11T02:21:19.053Z,5.81
2023-04-11T02:22:21.178Z,5.85
2023-04-11T02:23:24.167Z,5.87
2023-04-11T02:24:28.363Z,5.87
2023-04-11T02:25:31.334Z,5.87
2023-04-11T02:26:33.449Z,5.87
2023-04-11T02:27:35.788Z,5.87
2023-04-11T02:28:37.953Z,5.86
2023-04-11T02:29:40.077Z,5.89
2023-04-11T02:30:42.308Z,5.87
2023-04-11T02:31:44.571Z,5.86
2023-04-11T02:32:49.477Z,5.92
2023-04-11T02:33:51.770Z,5.87
2023-04-11T02:34:54.063Z,5.86
2023-04-11T02:35:56.255Z,5.77
2023-04-11T02:36:58.390Z,5.72
2023-04-11T02:38:00.718Z,5.69
2023-04-11T02:39:02.968Z,5.67
2023-04-11T02:40:05.765Z,5.71
2023-04-11T02:41:08.555Z,5.72
2023-04-11T02:42:12.660Z,5.71
2023-04-11T02:43:15.929Z,5.64
2023-04-11T02:44:19.200Z,5.58
2023-04-11T02:45:21.919Z,5.64
2023-04-11T02:46:24.116Z,5.64
2023-04-11T02:47:26.402Z,5.59
2023-04-11T02:48:28.592Z,5.55
2023-04-11T02:49:30.744Z,5.56
2023-04-11T02:50:32.942Z,5.54
2023-04-11T02:51:35.149Z,5.51
2023-04-11T02:52:39.375Z,5.48
2023-04-11T02:53:41.562Z,5.43
2023-04-11T02:54:44.070Z,5.45
2023-04-11T02:55:46.710Z,5.48
2023-04-11T02:56:48.913Z,5.49
2023-04-11T02:57:51.364Z,5.53
2023-04-11T02:58:53.606Z,5.51
2023-04-11T02:59:55.878Z,5.53
2023-04-11T03:00:58.039Z,5.51
2023-04-11T03:02:01.319Z,5.51
2023-04-11T03:03:03.858Z,5.42
2023-04-11T03:04:07.423Z,5.30
2023-04-11T03:05:09.842Z,5.25
2023-04-11T03:06:12.108Z,5.23
2023-04-11T03:07:14.255Z,5.25
2023-04-11T03:08:16.422Z,5.33
2023-04-11T03:09:19.499Z,5.35
2023-04-11T03:10:21.757Z,5.44
2023-04-11T03:11:23.931Z,5.44
2023-04-11T03:12:26.473Z,5.44
2023-04-11T03:13:28.922Z,5.48
2023-04-11T03:14:31.128Z,5.48
2023-04-11T03:15:33.326Z,5.51
2023-04-11T03:16:35.835Z,5.50
2023-04-11T03:17:38.076Z,5.48
2023-04-11T03:18:40.270Z,5.41
2023-04-11T03:19:42.396Z,5.39
2023-04-11T03:20:44.972Z,5.41
2023-04-11T03:21:47.127Z,5.42
2023-04-11T03:22:49.559Z,5.42
2023-04-11T03:23:51.953Z,5.36
2023-04-11T03:24:54.111Z,5.33
2023-04-11T03:25:56.599Z,5.30
2023-04-11T03:26:58.852Z,5.29
2023-04-11T03:28:01.724Z,5.25
2023-04-11T03:29:03.970Z,5.18
2023-04-11T03:30:06.811Z,5.17
2023-04-11T03:31:09.005Z,5.20
2023-04-11T03:32:11.241Z,5.29
2023-04-11T03:33:13.548Z,5.33
2023-04-11T03:34:16.112Z,5.39
2023-04-11T03:35:20.517Z,5.38
2023-04-11T03:36:23.138Z,5.39
2023-04-11T03:37:25.379Z,5.38
2023-04-11T03:38:27.549Z,5.38
2023-04-11T03:39:29.747Z,5.36
2023-04-11T03:40:31.929Z,5.37
2023-04-11T03:41:34.077Z,5.37
2023-04-11T03:42:36.522Z,5.38
2023-04-11T03:43:38.706Z,5.42
2023-04-11T03:44:41.072Z,5.40
2023-04-11T03:45:43.361Z,5.39
2023-04-11T03:46:45.611Z,5.41
2023-04-11T03:47:48.146Z,5.44
2023-04-11T03:48:50.565Z,5.48
2023-04-11T03:49:52.765Z,5.52
2023-04-11T03:50:55.588Z,5.48
2023-04-11T03:51:57.994Z,5.45
2023-04-11T03:53:00.240Z,5.45
2023-04-11T03:54:02.377Z,5.40
2023-04-11T03:55:06.170Z,5.42
2023-04-11T03:56:09.132Z,5.39
2023-04-11T03:57:11.831Z,5.42
2023-04-11T03:58:13.934Z,5.49
2023-04-11T03:59:16.079Z,5.48
2023-04-11T04:00:20.114Z,5.47
2023-04-11T04:01:22.346Z,5.49
2023-04-11T04:02:24.675Z,5.51
2023-04-11T04:03:27.356Z,5.51
2023-04-11T04:04:30.243Z,5.58
2023-04-11T04:05:32.595Z,5.64
2023-04-11T04:06:35.837Z,5.69
2023-04-11T04:07:38.145Z,5.71
2023-04-11T04:08:40.898Z,5.73
2023-04-11T04:09:43.153Z,5.76
2023-04-11T04:10:47.084Z,5.72
2023-04-11T04:11:49.222Z,5.74
2023-04-11T04:12:53.934Z,5.67
2023-04-11T04:13:56.461Z,5.68
2023-04-11T04:14:58.826Z,5.68
2023-04-11T04:16:03.472Z,5.69
2023-04-11T04:17:06.004Z,5.70
2023-04-11T04:18:08.266Z,5.71
2023-04-11T04:19:10.679Z,5.73
2023-04-11T04:20:12.990Z,5.69
2023-04-11T04:21:15.616Z,5.71
2023-04-11T04:22:17.950Z,5.70
2023-04-11T04:23:23.918Z,5.70
2023-04-11T04:24:26.217Z,5.70
2023-04-11T04:25:28.420Z,5.72
2023-04-11T04:26:31.473Z,5.73
2023-04-11T04:27:33.659Z,5.71
2023-04-11T04:28:35.818Z,5.66
2023-04-11T04:29:38.811Z,5.66
2023-04-11T04:30:41.632Z,5.64
2023-04-11T04:31:44.577Z,5.64
2023-04-11T04:32:46.784Z,5.66
2023-04-11T04:33:49.578Z,5.67
2023-04-11T04:34:55.477Z,5.70
2023-04-11T04:36:00.255Z,5.72
2023-04-11T04:37:02.678Z,5.73
2023-04-11T04:38:06.494Z,5.78
2023-04-11T04:39:09.983Z,5.78
2023-04-11T04:40:14.046Z,5.73
2023-04-11T04:41:16.246Z,5.68
2023-04-11T04:42:18.502Z,5.70
2023-04-11T04:43:23.059Z,5.72
2023-04-11T04:44:25.365Z,5.75
2023-04-11T04:45:27.651Z,5.78
2023-04-11T04:46:36.736Z,5.79
2023-04-11T04:47:39.019Z,5.83
2023-04-11T04:48:41.451Z,5.89
2023-04-11T04:49:44.365Z,5.96
2023-04-11T04:50:46.533Z,6.04
2023-04-11T04:51:48.944Z,6.13
2023-04-11T04:52:51.205Z,6.21
2023-04-11T04:53:53.409Z,6.23
2023-04-11T04:54:58.096Z,6.30
2023-04-11T04:56:01.446Z,6.28
2023-04-11T04:57:03.722Z,6.21
2023-04-11T04:58:05.920Z,6.17
2023-04-11T04:59:08.392Z,6.19
2023-04-11T05:00:11.866Z,6.32
2023-04-11T05:01:14.142Z,6.43
2023-04-11T05:02:17.441Z,6.46
2023-04-11T05:03:21.081Z,6.49
2023-04-11T05:04:23.627Z,6.50
2023-04-11T05:05:26.062Z,6.56
2023-04-11T05:06:30.114Z,6.67
2023-04-11T05:07:32.305Z,6.70
2023-04-11T05:08:34.463Z,6.73
2023-04-11T05:09:37.064Z,6.85
2023-04-11T05:10:39.184Z,6.88
2023-04-11T05:11:41.343Z,6.82
2023-04-11T05:12:43.649Z,6.87
2023-04-11T05:13:45.992Z,6.94
2023-04-11T05:14:48.297Z,6.98
2023-04-11T05:15:51.256Z,7.01
2023-04-11T05:16:53.527Z,7.01
2023-04-11T05:17:55.733Z,7.09
2023-04-11T05:18:59.304Z,7.19
2023-04-11T05:20:01.458Z,7.28
2023-04-11T05:21:05.379Z,7.33
2023-04-11T05:22:07.581Z,7.36
2023-04-11T05:23:09.847Z,7.41
2023-04-11T05:24:12.111Z,7.46
2023-04-11T05:25:14.286Z,7.51
2023-04-11T05:26:16.733Z,7.48
2023-04-11T05:27:19.430Z,7.51
2023-04-11T05:28:21.608Z,7.55
2023-04-11T05:29:23.850Z,7.59
2023-04-11T05:30:26.221Z,7.64
2023-04-11T05:31:29.093Z,7.69
2023-04-11T05:32:31.234Z,7.76
2023-04-11T05:33:33.438Z,7.79
2023-04-11T05:34:51.158Z,7.81
2023-04-11T05:35:53.421Z,7.87
2023-04-11T05:36:55.702Z,7.97
2023-04-11T05:37:58.403Z,8.07
2023-04-11T05:39:01.079Z,8.09
2023-04-11T05:40:03.923Z,8.18
2023-04-11T05:41:06.393Z,8.22
2023-04-11T05:42:08.531Z,8.31
2023-04-11T05:43:15.209Z,8.42
2023-04-11T05:44:17.371Z,8.41
2023-04-11T05:45:19.880Z,8.45
2023-04-11T05:46:22.226Z,8.56
2023-04-11T05:47:24.433Z,8.67
2023-04-11T05:48:26.606Z,8.76
2023-04-11T05:49:28.774Z,8.85
2023-04-11T05:50:31.045Z,8.98
2023-04-11T05:51:33.226Z,9.08
2023-04-11T05:52:35.412Z,9.14
2023-04-11T05:53:37.675Z,9.14
2023-04-11T05:54:39.873Z,9.12
2023-04-11T05:55:41.980Z,9.14
2023-04-11T05:56:44.181Z,9.17
2023-04-11T05:57:46.392Z,9.24
2023-04-11T05:58:48.600Z,9.25
2023-04-11T05:59:53.005Z,9.37
2023-04-11T06:00:55.787Z,9.43
2023-04-11T06:01:58.885Z,9.57
2023-04-11T06:03:01.920Z,9.68
2023-04-11T06:04:04.478Z,9.83
2023-04-11T06:05:07.333Z,9.93
2023-04-11T06:06:09.553Z,9.92
2023-04-11T06:07:11.908Z,9.91
2023-04-11T06:08:14.244Z,9.97
2023-04-11T06:09:18.072Z,10.01
2023-04-11T06:10:20.445Z,10.03
2023-04-11T06:11:22.609Z,10.13
2023-04-11T06:12:24.715Z,10.13
2023-04-11T06:13:26.891Z,10.16
2023-04-11T06:14:29.062Z,10.19
2023-04-11T06:15:31.336Z,10.23
2023-04-11T06:16:35.550Z,10.28
2023-04-11T06:17:38.328Z,10.32
2023-04-11T06:18:40.551Z,10.38
2023-04-11T06:19:42.712Z,10.42
2023-04-11T06:20:46.404Z,10.42
2023-04-11T06:21:48.568Z,10.24
2023-04-11T06:22:53.908Z,10.28
2023-04-11T06:23:56.895Z,10.35
2023-04-11T06:24:59.208Z,10.23
2023-04-11T06:26:01.513Z,10.18
2023-04-11T06:27:03.971Z,10.15
2023-04-11T06:28:06.137Z,10.22
2023-04-11T06:29:08.384Z,10.21
2023-04-11T06:30:10.824Z,10.18
2023-04-11T06:31:13.024Z,10.16
2023-04-11T06:32:15.380Z,10.29
2023-04-11T06:33:17.580Z,10.37
2023-04-11T06:34:19.700Z,10.43
2023-04-11T06:35:24.917Z,10.47
2023-04-11T06:36:27.528Z,10.36
2023-04-11T06:37:29.683Z,10.33
2023-04-11T06:38:32.037Z,10.42
2023-04-11T06:39:34.856Z,10.53
2023-04-11T06:40:36.971Z,10.67
2023-04-11T06:41:39.128Z,10.67
2023-04-11T06:42:42.286Z,10.73
2023-04-11T06:43:44.610Z,10.76
2023-04-11T06:44:46.778Z,10.88
2023-04-11T06:45:49.724Z,11.02
2023-04-11T06:46:51.941Z,11.13
2023-04-11T06:47:54.285Z,11.17
2023-04-11T06:48:56.527Z,11.18
2023-04-11T06:49:59.364Z,11.17
2023-04-11T06:51:01.503Z,11.14
2023-04-11T06:52:03.710Z,11.22
2023-04-11T06:53:05.873Z,11.37
2023-04-11T06:54:08.132Z,11.39
2023-04-11T06:55:12.199Z,11.55
2023-04-11T06:56:14.356Z,11.68
2023-04-11T06:57:17.915Z,11.79
2023-04-11T06:58:20.115Z,11.72
2023-04-11T06:59:22.651Z,11.46
2023-04-11T07:00:26.475Z,11.38
2023-04-11T07:01:35.550Z,11.48
2023-04-11T07:02:39.373Z,11.67
2023-04-11T07:03:41.979Z,11.82
2023-04-11T07:04:44.525Z,11.94
2023-04-11T07:05:47.282Z,11.95
2023-04-11T07:06:49.411Z,12.08
2023-04-11T07:07:51.609Z,12.21
2023-04-11T07:08:53.859Z,12.26
2023-04-11T07:09:56.027Z,12.31
2023-04-11T07:10:58.160Z,12.41
2023-04-11T07:12:01.384Z,12.35
2023-04-11T07:13:03.551Z,12.33
2023-04-11T07:14:05.812Z,12.42
2023-04-11T07:15:09.039Z,12.43
2023-04-11T07:16:11.340Z,12.39
2023-04-11T07:17:13.598Z,12.54
2023-04-11T07:18:15.763Z,12.71
2023-04-11T07:19:17.934Z,12.91
2023-04-11T07:20:20.142Z,12.90
2023-04-11T07:21:22.317Z,13.04
2023-04-11T07:22:24.447Z,13.29
2023-04-11T07:23:26.552Z,13.24
2023-04-11T07:24:30.635Z,13.40
2023-04-11T07:25:33.892Z,13.46
2023-04-11T07:26:38.622Z,13.52
2023-04-11T07:27:43.909Z,13.89
2023-04-11T07:28:47.564Z,14.07
2023-04-11T07:29:49.887Z,14.30
2023-04-11T07:30:52.173Z,14.30
2023-04-11T07:31:54.590Z,14.37
2023-04-11T07:32:56.794Z,14.32
2023-04-11T07:33:59.083Z,13.98
2023-04-11T07:35:01.357Z,13.77
2023-04-11T07:36:04.708Z,13.96
2023-04-11T07:37:07.214Z,14.00
2023-04-11T07:38:10.333Z,14.02
2023-04-11T07:39:16.000Z,14.02
2023-04-11T07:40:26.011Z,13.91
2023-04-11T07:41:28.319Z,13.81
2023-04-11T07:42:30.679Z,13.62
2023-04-11T07:43:33.524Z,13.76
2023-04-11T07:44:35.771Z,13.82
2023-04-11T07:45:39.459Z,13.93
2023-04-11T07:46:41.696Z,13.90
2023-04-11T07:47:43.849Z,14.06
2023-04-11T07:48:46.024Z,14.05
2023-04-11T07:49:48.171Z,14.18
2023-04-11T07:50:50.344Z,14.17
2023-04-11T07:51:54.801Z,14.09
2023-04-11T07:52:57.642Z,14.05
2023-04-11T07:54:00.152Z,13.96
2023-04-11T07:55:03.024Z,13.73
2023-04-11T07:56:05.417Z,13.64
2023-04-11T07:57:07.558Z,13.72
2023-04-11T07:58:09.690Z,13.67
2023-04-11T07:59:16.039Z,13.59
2023-04-11T08:00:22.992Z,13.59
2023-04-11T08:01:27.093Z,13.71
2023-04-11T08:02:29.442Z,13.76
2023-04-11T08:03:32.151Z,13.78
2023-04-11T08:04:35.253Z,13.87
2023-04-11T08:05:37.758Z,13.80
2023-04-11T08:06:39.984Z,13.89
2023-04-11T08:07:42.240Z,13.98
2023-04-11T08:08:45.132Z,14.04
2023-04-11T08:09:47.348Z,14.02
2023-04-11T08:10:51.929Z,14.17
2023-04-11T08:11:54.977Z,14.19
2023-04-11T08:12:58.742Z,14.38
2023-04-11T08:14:01.003Z,14.27
2023-04-11T08:15:03.397Z,14.35
2023-04-11T08:16:10.518Z,14.31
2023-04-11T08:17:27.121Z,14.36
2023-04-11T08:18:31.346Z,14.39
2023-04-11T08:19:34.351Z,14.50
2023-04-11T08:20:36.685Z,14.50
2023-04-11T08:21:38.759Z,14.54
2023-04-11T08:22:44.519Z,14.58
2023-04-11T08:23:47.375Z,14.41
2023-04-11T08:24:49.666Z,14.51
2023-04-11T08:25:52.236Z,14.67
2023-04-11T08:26:54.459Z,14.65
2023-04-11T08:27:56.617Z,14.58
2023-04-11T08:28:58.744Z,14.39
2023-04-11T08:30:00.917Z,14.42
2023-04-11T08:31:05.069Z,14.40
2023-04-11T08:32:07.296Z,14.31
2023-04-11T08:33:10.314Z,14.24
2023-04-11T08:34:13.126Z,14.27
2023-04-11T08:35:15.407Z,14.12
2023-04-11T08:36:17.665Z,14.15
2023-04-11T08:37:19.893Z,14.01
2023-04-11T08:38:22.068Z,14.29
2023-04-11T08:39:24.251Z,14.53
2023-04-11T08:40:27.098Z,14.55
2023-04-11T08:41:30.846Z,15.05
2023-04-11T08:42:33.906Z,15.42
2023-04-11T08:43:37.787Z,15.12
2023-04-11T08:44:39.926Z,15.25
2023-04-11T08:45:42.546Z,15.25
2023-04-11T08:46:45.016Z,15.27
2023-04-11T08:47:47.170Z,15.11
2023-04-11T08:48:49.863Z,15.15
2023-04-11T08:49:52.953Z,15.43
2023-04-11T08:50:55.039Z,15.56
2023-04-11T08:51:57.289Z,15.44
2023-04-11T08:53:02.719Z,15.11
2023-04-11T08:54:05.886Z,15.06
2023-04-11T08:55:08.520Z,15.42
2023-04-11T08:56:19.263Z,15.47
2023-04-11T08:57:25.833Z,15.41
2023-04-11T08:58:28.552Z,15.38
2023-04-11T08:59:33.135Z,15.48
2023-04-11T09:00:35.310Z,15.10
2023-04-11T09:01:37.693Z,15.01
2023-04-11T09:02:56.827Z,15.00
2023-04-11T09:04:00.509Z,14.61
2023-04-11T09:05:02.824Z,14.72
2023-04-11T09:06:10.808Z,14.77
2023-04-11T09:07:14.036Z,14.99
2023-04-11T09:08:17.158Z,15.14
2023-04-11T09:09:29.916Z,15.30
2023-04-11T09:10:32.361Z,15.45
2023-04-11T09:11:54.846Z,15.47
2023-04-11T09:12:57.725Z,15.41
2023-04-11T09:14:07.569Z,15.63
2023-04-11T09:15:24.241Z,15.68
2023-04-11T09:16:26.394Z,15.51
2023-04-11T09:17:40.757Z,15.40
2023-04-11T09:18:44.931Z,15.23
2023-04-11T09:19:49.210Z,15.25
2023-04-11T09:21:01.298Z,15.28
2023-04-11T09:22:06.107Z,15.23
2023-04-11T09:23:22.098Z,15.35
2023-04-11T09:24:26.039Z,15.32
2023-04-11T09:25:28.214Z,15.59
2023-04-11T09:26:30.479Z,15.83
2023-04-11T09:27:32.799Z,15.97
2023-04-11T09:28:52.348Z,16.37
2023-04-11T09:29:54.541Z,16.14
2023-04-11T09:30:58.075Z,15.99
2023-04-11T09:32:00.262Z,15.76
2023-04-11T09:33:22.603Z,16.02
2023-04-11T09:34:27.384Z,15.68
2023-04-11T09:35:29.527Z,15.29
2023-04-11T09:36:31.661Z,15.52
2023-04-11T09:37:44.578Z,15.91
2023-04-11T09:38:46.830Z,15.97
2023-04-11T09:39:59.160Z,16.15
2023-04-11T09:41:02.500Z,16.25
2023-04-11T09:42:23.440Z,15.95
2023-04-11T09:43:25.832Z,15.65
2023-04-11T09:44:46.036Z,15.51
2023-04-11T09:45:54.544Z,15.86
2023-04-11T09:46:58.279Z,15.78
2023-04-11T09:48:00.508Z,16.19
2023-04-11T09:49:03.207Z,16.05
2023-04-11T09:50:06.211Z,16.24
2023-04-11T09:51:09.197Z,16.71
2023-04-11T09:52:11.711Z,17.06
2023-04-11T09:53:14.038Z,17.67
2023-04-11T09:54:16.414Z,17.77
2023-04-11T09:55:20.373Z,18.12
2023-04-11T09:56:24.123Z,17.92
2023-04-11T09:57:27.174Z,18.12
2023-04-11T09:58:33.466Z,17.96
2023-04-11T09:59:36.026Z,17.59
2023-04-11T10:00:41.043Z,17.43
2023-04-11T10:01:43.597Z,17.52
2023-04-11T10:02:55.861Z,17.52
2023-04-11T10:03:58.709Z,17.79
2023-04-11T10:05:04.360Z,17.76
2023-04-11T10:06:18.361Z,17.66
2023-04-11T10:07:21.248Z,17.62
2023-04-11T10:08:32.773Z,17.92
2023-04-11T10:09:38.928Z,18.39
2023-04-11T10:10:43.016Z,18.38
2023-04-11T10:11:46.122Z,18.41
2023-04-11T10:12:49.224Z,18.41
2023-04-11T10:13:51.625Z,18.42
2023-04-11T10:14:56.554Z,18.47
2023-04-11T10:16:18.618Z,18.53
2023-04-11T10:17:23.313Z,18.68
2023-04-11T10:18:26.630Z,18.32
2023-04-11T10:19:28.764Z,18.11
2023-04-11T10:20:50.417Z,16.81
2023-04-11T10:21:52.631Z,17.59
2023-04-11T10:22:58.894Z,17.70
2023-04-11T10:24:17.541Z,18.33
2023-04-11T10:25:21.389Z,18.83
2023-04-11T10:26:46.662Z,19.44
2023-04-11T10:27:49.545Z,19.73
2023-04-11T10:28:51.904Z,19.85
2023-04-11T10:29:54.221Z,19.84
2023-04-11T10:31:00.737Z,18.85
2023-04-11T10:32:14.773Z,19.45
2023-04-11T10:33:20.901Z,19.64
2023-04-11T10:34:23.011Z,19.06
2023-04-11T10:35:25.355Z,19.62
2023-04-11T10:36:27.685Z,19.58
2023-04-11T10:37:29.776Z,20.00
2023-04-11T10:38:43.733Z,19.87
2023-04-11T10:39:51.748Z,20.00
2023-04-11T10:41:16.038Z,19.85
2023-04-11T10:42:27.694Z,19.89
2023-04-11T10:43:29.923Z,19.80
2023-04-11T10:44:32.144Z,20.02
2023-04-11T10:45:39.896Z,20.20
2023-04-11T10:46:49.440Z,20.30
2023-04-11T10:47:51.727Z,20.92
2023-04-11T10:49:04.328Z,20.56
2023-04-11T10:50:31.473Z,20.01
2023-04-11T10:51:34.356Z,20.23
2023-04-11T10:52:38.265Z,20.44
2023-04-11T10:53:41.119Z,19.82
2023-04-11T10:54:44.593Z,19.85
2023-04-11T10:55:48.903Z,20.38
2023-04-11T10:56:54.830Z,19.98
2023-04-11T10:58:09.726Z,19.47
2023-04-11T10:59:34.456Z,19.86
2023-04-11T11:00:51.931Z,19.58
2023-04-11T11:02:01.814Z,19.82
2023-04-11T11:03:04.286Z,20.13
2023-04-11T11:04:07.243Z,20.47
2023-04-11T11:05:17.329Z,20.97
2023-04-11T11:06:20.862Z,20.98
2023-04-11T11:07:22.960Z,20.54
2023-04-11T11:08:33.284Z,20.56
2023-04-11T11:09:35.863Z,21.05
2023-04-11T11:10:48.335Z,21.88
2023-04-11T11:12:16.728Z,21.34
2023-04-11T11:13:18.814Z,21.31
2023-04-11T11:14:30.539Z,21.50
2023-04-11T11:15:37.970Z,21.49
2023-04-11T11:16:41.058Z,20.78
2023-04-11T11:17:43.686Z,19.93
2023-04-11T11:18:59.144Z,19.83
2023-04-11T11:20:01.670Z,19.98
2023-04-11T11:21:04.749Z,19.81
2023-04-11T11:22:17.157Z,20.11
2023-04-11T11:23:19.249Z,20.20
2023-04-11T11:24:25.412Z,20.96
2023-04-11T11:25:27.606Z,21.24
2023-04-11T11:26:36.816Z,21.28
2023-04-11T11:27:38.968Z,21.36
2023-04-11T11:28:48.495Z,20.67
2023-04-11T11:29:51.156Z,21.24
2023-04-11T11:30:55.838Z,21.42
2023-04-11T11:31:58.703Z,21.85
2023-04-11T11:33:14.956Z,22.58
2023-04-11T11:34:27.276Z,22.39
2023-04-11T11:35:29.477Z,21.78
2023-04-11T11:36:34.499Z,22.01
2023-04-11T11:37:36.744Z,20.80
2023-04-11T11:38:38.822Z,20.72
2023-04-11T11:39:40.986Z,20.38
2023-04-11T11:40:43.227Z,19.99
2023-04-11T11:41:45.965Z,19.63
2023-04-11T11:42:49.843Z,20.12
2023-04-11T11:43:51.927Z,20.26
2023-04-11T11:44:54.133Z,20.24
2023-04-11T11:46:14.637Z,20.17
2023-04-11T11:47:17.108Z,20.77
2023-04-11T11:48:25.534Z,19.81
2023-04-11T11:49:27.744Z,20.49
2023-04-11T11:50:31.448Z,20.69
2023-04-11T11:51:44.355Z,21.22
2023-04-11T11:52:48.786Z,21.57
2023-04-11T11:54:10.223Z,22.42
2023-04-11T11:55:18.418Z,22.63
2023-04-11T11:56:22.100Z,23.25
2023-04-11T11:57:24.199Z,23.08
2023-04-11T11:58:27.377Z,23.49
2023-04-11T11:59:29.580Z,23.27
2023-04-11T12:00:39.315Z,24.19
2023-04-11T12:01:43.360Z,23.75
2023-04-11T12:02:46.215Z,23.58
2023-04-11T12:03:51.646Z,23.38
2023-04-11T12:05:00.880Z,22.12
2023-04-11T12:06:03.141Z,20.74
2023-04-11T12:07:09.605Z,20.16
2023-04-11T12:08:12.074Z,19.80
2023-04-11T12:09:14.273Z,19.17
2023-04-11T12:10:17.460Z,19.08
2023-04-11T12:11:19.629Z,18.92
2023-04-11T12:12:21.754Z,18.90
2023-04-11T12:13:27.216Z,19.04
2023-04-11T12:14:29.605Z,19.30
2023-04-11T12:15:35.581Z,19.14
2023-04-11T12:16:38.334Z,19.16
2023-04-11T12:17:41.067Z,19.47
2023-04-11T12:18:43.841Z,19.25
2023-04-11T12:19:45.992Z,19.95
2023-04-11T12:20:48.450Z,19.71
2023-04-11T12:21:50.638Z,20.27
2023-04-11T12:22:54.592Z,20.49
2023-04-11T12:23:57.993Z,20.86
2023-04-11T12:25:11.440Z,20.70
2023-04-11T12:26:13.813Z,20.19
2023-04-11T12:27:16.267Z,20.32
2023-04-11T12:28:18.502Z,21.31
2023-04-11T12:29:20.663Z,22.05
2023-04-11T12:30:22.913Z,22.38
2023-04-11T12:31:25.831Z,22.56
2023-04-11T12:32:28.176Z,22.93
2023-04-11T12:33:30.647Z,23.05
2023-04-11T12:34:32.783Z,23.21
2023-04-11T12:35:34.926Z,23.51
2023-04-11T12:36:37.142Z,23.03
2023-04-11T12:37:39.342Z,22.33
2023-04-11T12:38:42.290Z,22.30
2023-04-11T12:39:44.422Z,22.24
2023-04-11T12:40:46.938Z,22.93
2023-04-11T12:41:49.046Z,23.56
2023-04-11T12:42:56.754Z,23.55
2023-04-11T12:44:02.227Z,23.72
2023-04-11T12:45:08.560Z,23.80
2023-04-11T12:46:11.654Z,23.27
2023-04-11T12:47:13.916Z,23.30
2023-04-11T12:48:16.077Z,21.74
2023-04-11T12:49:18.234Z,21.75
2023-04-11T12:50:23.218Z,20.57
2023-04-11T12:51:25.565Z,20.79
2023-04-11T12:52:28.486Z,20.24
2023-04-11T12:53:30.612Z,20.96
2023-04-11T12:54:33.542Z,21.45
2023-04-11T12:55:35.808Z,21.36
2023-04-11T12:56:38.404Z,21.19
2023-04-11T12:57:41.566Z,21.02
2023-04-11T12:58:44.992Z,20.72
2023-04-11T12:59:47.244Z,20.67
2023-04-11T13:00:49.434Z,20.53
2023-04-11T13:01:51.664Z,20.24
2023-04-11T13:02:54.696Z,20.39
2023-04-11T13:03:57.366Z,20.07
2023-04-11T13:05:02.625Z,19.53
2023-04-11T13:06:05.094Z,19.72
2023-04-11T13:07:07.206Z,19.53
2023-04-11T13:08:09.689Z,19.44
2023-04-11T13:09:12.570Z,19.51
2023-04-11T13:10:18.314Z,19.50
2023-04-11T13:11:20.415Z,19.22
2023-04-11T13:12:22.565Z,19.26
2023-04-11T13:13:24.771Z,19.30
2023-04-11T13:14:26.881Z,19.69
2023-04-11T13:15:29.047Z,20.26
2023-04-11T13:16:32.324Z,19.73
2023-04-11T13:17:35.174Z,20.11
2023-04-11T13:18:37.376Z,20.14
2023-04-11T13:19:39.443Z,20.08
2023-04-11T13:20:42.674Z,19.46
2023-04-11T13:21:44.806Z,19.13
2023-04-11T13:22:46.929Z,19.30
2023-04-11T13:23:49.005Z,19.35
2023-04-11T13:24:51.247Z,19.35
2023-04-11T13:25:53.318Z,19.35
2023-04-11T13:26:55.462Z,19.19
2023-04-11T13:27:57.884Z,19.06
2023-04-11T13:29:00.012Z,19.01
2023-04-11T13:30:04.706Z,18.64
2023-04-11T13:31:10.431Z,18.58
2023-04-11T13:32:12.598Z,18.73
2023-04-11T13:33:14.728Z,18.88
2023-04-11T13:34:17.071Z,18.90
2023-04-11T13:35:19.213Z,18.81
2023-04-11T13:36:21.440Z,18.86
2023-04-11T13:37:23.587Z,18.88
2023-04-11T13:38:26.057Z,18.90
2023-04-11T13:39:28.201Z,19.03
2023-04-11T13:40:30.454Z,19.08
2023-04-11T13:41:32.826Z,19.11
2023-04-11T13:42:35.309Z,19.03
2023-04-11T13:43:37.438Z,19.04
2023-04-11T13:44:39.580Z,19.03
2023-04-11T13:45:41.805Z,19.08
2023-04-11T13:46:43.970Z,19.13
2023-04-11T13:47:46.149Z,19.21
2023-04-11T13:48:48.350Z,19.06
2023-04-11T13:49:50.503Z,18.93
2023-04-11T13:50:52.690Z,18.91
2023-04-11T13:51:54.895Z,18.85
2023-04-11T13:52:57.802Z,18.75